sensor_id;sensor_type;location;lat;lon;timestamp;pressure;altitude;pressure_sealevel;temperature;humidity
23118;BME280;11728;50.624;6.014;2023-02-13T00:04:52;100232.81;;;2.49;100.00
23118;BME280;11728;50.624;6.014;2023-02-13T00:09:53;100230.94;;;2.45;100.00
23118;BME280;11728;50.624;6.014;2023-02-13T00:14:53;100227.25;;;2.40;100.00
23118;BME280;11728;50.624;6.014;2023-02-13T00:19:53;100230.19;;;2.27;100.00
23118;BME280;11728;50.624;6.014;2023-02-13T00:24:54;100222.84;;;2.17;100.00
23118;BME280;11728;50.624;6.014;2023-02-13T00:29:54;100233.06;;;2.13;100.00
23118;BME280;11728;50.624;6.014;2023-02-13T00:34:56;100229.19;;;2.03;100.00
23118;BME280;11728;50.624;6.014;2023-02-13T00:39:57;100227.88;;;1.92;100.00
23118;BME280;11728;50.624;6.014;2023-02-13T00:44:57;100228.44;;;1.85;100.00
23118;BME280;11728;50.624;6.014;2023-02-13T00:49:57;100223.91;;;1.81;100.00
23118;BME280;11728;50.624;6.014;2023-02-13T00:54:58;100217.78;;;1.79;100.00
23118;BME280;11728;50.624;6.014;2023-02-13T00:59:58;100223.66;;;1.75;100.00
23118;BME280;11728;50.624;6.014;2023-02-13T01:04:58;100219.41;;;1.77;100.00
23118;BME280;11728;50.624;6.014;2023-02-13T01:10:00;100216.03;;;1.80;100.00
23118;BME280;11728;50.624;6.014;2023-02-13T01:15:02;100217.09;;;1.85;100.00
23118;BME280;11728;50.624;6.014;2023-02-13T01:20:03;100206.78;;;1.86;100.00
23118;BME280;11728;50.624;6.014;2023-02-13T01:25:04;100210.16;;;1.84;100.00
23118;BME280;11728;50.624;6.014;2023-02-13T01:30:06;100214.19;;;1.77;100.00
23118;BME280;11728;50.624;6.014;2023-02-13T01:35:13;100220.94;;;1.72;100.00
23118;BME280;11728;50.624;6.014;2023-02-13T01:40:14;100213.94;;;1.71;100.00
23118;BME280;11728;50.624;6.014;2023-02-13T01:50:57;100213.69;;;1.65;100.00
23118;BME280;11728;50.624;6.014;2023-02-13T01:56:16;100218.06;;;1.66;100.00
23118;BME280;11728;50.624;6.014;2023-02-13T02:01:18;100215.34;;;1.63;100.00
23118;BME280;11728;50.624;6.014;2023-02-13T02:06:26;100217.88;;;1.62;100.00
23118;BME280;11728;50.624;6.014;2023-02-13T02:16:55;100206.06;;;1.50;100.00
23118;BME280;11728;50.624;6.014;2023-02-13T02:33:16;100215.56;;;1.49;100.00
23118;BME280;11728;50.624;6.014;2023-02-13T02:43:48;100214.44;;;1.63;100.00
23118;BME280;11728;50.624;6.014;2023-02-13T02:48:56;100214.50;;;1.64;100.00
23118;BME280;11728;50.624;6.014;2023-02-13T02:55:06;100219.00;;;1.68;100.00
23118;BME280;11728;50.624;6.014;2023-02-13T03:00:10;100214.63;;;1.67;100.00
23118;BME280;11728;50.624;6.014;2023-02-13T03:05:31;100218.75;;;1.62;100.00
23118;BME280;11728;50.624;6.014;2023-02-13T03:10:52;100214.50;;;1.64;100.00
23118;BME280;11728;50.624;6.014;2023-02-13T03:16:15;100217.22;;;1.67;100.00
23118;BME280;11728;50.624;6.014;2023-02-13T03:27:41;100223.53;;;1.72;100.00
23118;BME280;11728;50.624;6.014;2023-02-13T03:49:17;100219.91;;;1.69;100.00
23118;BME280;11728;50.624;6.014;2023-02-13T03:54:44;100218.00;;;1.65;100.00
23118;BME280;11728;50.624;6.014;2023-02-13T04:00:09;100224.22;;;1.68;100.00
23118;BME280;11728;50.624;6.014;2023-02-13T04:05:15;100224.47;;;1.74;100.00
23118;BME280;11728;50.624;6.014;2023-02-13T04:10:18;100219.41;;;1.77;100.00
23118;BME280;11728;50.624;6.014;2023-02-13T04:15:43;100228.25;;;1.81;100.00
23118;BME280;11728;50.624;6.014;2023-02-13T04:20:42;100229.00;;;1.78;100.00
23118;BME280;11728;50.624;6.014;2023-02-13T04:25:46;100223.09;;;1.82;100.00
23118;BME280;11728;50.624;6.014;2023-02-13T04:30:47;100222.31;;;1.85;100.00
23118;BME280;11728;50.624;6.014;2023-02-13T04:35:49;100228.44;;;1.85;100.00
23118;BME280;11728;50.624;6.014;2023-02-13T04:40:49;100220.56;;;1.84;100.00
23118;BME280;11728;50.624;6.014;2023-02-13T04:45:50;100216.38;;;1.87;100.00
23118;BME280;11728;50.624;6.014;2023-02-13T04:50:50;100213.88;;;1.90;100.00
23118;BME280;11728;50.624;6.014;2023-02-13T04:55:51;100214.97;;;1.95;100.00
23118;BME280;11728;50.624;6.014;2023-02-13T05:00:51;100213.19;;;1.94;100.00
23118;BME280;11728;50.624;6.014;2023-02-13T05:05:51;100210.47;;;1.91;100.00
23118;BME280;11728;50.624;6.014;2023-02-13T05:10:52;100211.03;;;1.84;100.00
23118;BME280;11728;50.624;6.014;2023-02-13T05:15:52;100205.69;;;1.81;100.00
23118;BME280;11728;50.624;6.014;2023-02-13T05:20:52;100209.13;;;1.80;100.00
23118;BME280;11728;50.624;6.014;2023-02-13T05:26:11;100226.25;;;1.75;100.00
23118;BME280;11728;50.624;6.014;2023-02-13T05:31:12;100222.69;;;1.73;100.00
23118;BME280;11728;50.624;6.014;2023-02-13T05:36:12;100216.59;;;1.73;100.00
23118;BME280;11728;50.624;6.014;2023-02-13T05:41:13;100218.34;;;1.72;100.00
23118;BME280;11728;50.624;6.014;2023-02-13T05:46:14;100219.97;;;1.70;100.00
23118;BME280;11728;50.624;6.014;2023-02-13T05:51:14;100223.34;;;1.68;100.00
23118;BME280;11728;50.624;6.014;2023-02-13T05:56:17;100225.59;;;1.60;100.00
23118;BME280;11728;50.624;6.014;2023-02-13T06:01:18;100237.69;;;1.58;100.00
23118;BME280;11728;50.624;6.014;2023-02-13T06:06:18;100228.91;;;1.56;100.00
23118;BME280;11728;50.624;6.014;2023-02-13T06:11:19;100222.75;;;1.54;100.00
23118;BME280;11728;50.624;6.014;2023-02-13T06:16:20;100220.91;;;1.52;100.00
23118;BME280;11728;50.624;6.014;2023-02-13T06:21:21;100216.47;;;1.50;100.00
23118;BME280;11728;50.624;6.014;2023-02-13T06:26:22;100214.78;;;1.51;100.00
23118;BME280;11728;50.624;6.014;2023-02-13T06:31:23;100207.88;;;1.52;100.00
23118;BME280;11728;50.624;6.014;2023-02-13T06:36:23;100211.47;;;1.54;100.00
23118;BME280;11728;50.624;6.014;2023-02-13T06:41:24;100206.72;;;1.64;100.00
23118;BME280;11728;50.624;6.014;2023-02-13T06:46:24;100199.19;;;1.72;100.00
23118;BME280;11728;50.624;6.014;2023-02-13T06:51:24;100205.63;;;1.80;100.00
23118;BME280;11728;50.624;6.014;2023-02-13T06:56:25;100199.59;;;1.81;100.00
23118;BME280;11728;50.624;6.014;2023-02-13T07:01:26;100199.66;;;1.82;100.00
23118;BME280;11728;50.624;6.014;2023-02-13T07:06:26;100196.56;;;1.91;100.00
23118;BME280;11728;50.624;6.014;2023-02-13T07:11:27;100201.78;;;1.91;100.00
23118;BME280;11728;50.624;6.014;2023-02-13T07:16:27;100202.78;;;1.94;100.00
23118;BME280;11728;50.624;6.014;2023-02-13T07:21:27;100202.06;;;1.98;100.00
23118;BME280;11728;50.624;6.014;2023-02-13T07:26:28;100199.84;;;2.07;100.00
23118;BME280;11728;50.624;6.014;2023-02-13T07:31:28;100192.03;;;2.49;100.00
23118;BME280;11728;50.624;6.014;2023-02-13T07:36:29;100185.88;;;3.89;100.00
23118;BME280;11728;50.624;6.014;2023-02-13T07:41:29;100167.41;;;6.16;100.00
23118;BME280;11728;50.624;6.014;2023-02-13T07:46:29;100152.56;;;7.80;100.00
23118;BME280;11728;50.624;6.014;2023-02-13T07:51:30;100161.66;;;9.11;100.00
23118;BME280;11728;50.624;6.014;2023-02-13T07:56:30;100161.31;;;10.38;97.81
23118;BME280;11728;50.624;6.014;2023-02-13T08:01:30;100151.31;;;11.33;91.48
23118;BME280;11728;50.624;6.014;2023-02-13T08:06:31;100162.16;;;12.23;86.28
23118;BME280;11728;50.624;6.014;2023-02-13T08:11:31;100156.81;;;12.82;80.64
23118;BME280;11728;50.624;6.014;2023-02-13T08:16:52;100166.44;;;13.37;75.76
23118;BME280;11728;50.624;6.014;2023-02-13T08:21:53;100169.63;;;13.98;71.98
23118;BME280;11728;50.624;6.014;2023-02-13T08:26:55;100171.91;;;14.57;67.84
23118;BME280;11728;50.624;6.014;2023-02-13T08:31:55;100172.16;;;15.20;65.19
23118;BME280;11728;50.624;6.014;2023-02-13T08:36:56;100179.72;;;15.58;62.56
23118;BME280;11728;50.624;6.014;2023-02-13T08:41:56;100176.75;;;16.41;60.00
23118;BME280;11728;50.624;6.014;2023-02-13T08:46:56;100184.00;;;16.87;56.69
23118;BME280;11728;50.624;6.014;2023-02-13T08:51:57;100181.28;;;17.37;54.77
23118;BME280;11728;50.624;6.014;2023-02-13T08:56:57;100188.16;;;17.92;52.91
23118;BME280;11728;50.624;6.014;2023-02-13T09:01:58;100191.09;;;18.21;51.27
23118;BME280;11728;50.624;6.014;2023-02-13T09:06:58;100190.16;;;18.59;51.25
23118;BME280;11728;50.624;6.014;2023-02-13T09:11:58;100193.97;;;19.19;49.94
23118;BME280;11728;50.624;6.014;2023-02-13T09:17:00;100190.91;;;19.95;47.80
23118;BME280;11728;50.624;6.014;2023-02-13T09:22:00;100199.38;;;20.39;45.95
23118;BME280;11728;50.624;6.014;2023-02-13T09:27:03;100196.88;;;20.88;45.07
23118;BME280;11728;50.624;6.014;2023-02-13T09:32:04;100193.97;;;21.44;44.08
23118;BME280;11728;50.624;6.014;2023-02-13T09:37:06;100199.75;;;21.82;43.75
23118;BME280;11728;50.624;6.014;2023-02-13T09:42:23;100196.75;;;22.58;41.14
23118;BME280;11728;50.624;6.014;2023-02-13T09:52:34;100197.75;;;22.98;41.17
23118;BME280;11728;50.624;6.014;2023-02-13T09:57:41;100200.81;;;23.52;39.46
23118;BME280;11728;50.624;6.014;2023-02-13T10:08:07;100199.84;;;24.11;37.68
23118;BME280;11728;50.624;6.014;2023-02-13T10:13:23;100203.88;;;24.03;37.43
23118;BME280;11728;50.624;6.014;2023-02-13T10:18:28;100205.06;;;24.34;36.70
23118;BME280;11728;50.624;6.014;2023-02-13T10:23:42;100204.00;;;24.91;35.56
23118;BME280;11728;50.624;6.014;2023-02-13T10:29:14;100201.19;;;25.11;34.59
23118;BME280;11728;50.624;6.014;2023-02-13T10:34:38;100195.47;;;25.34;35.11
23118;BME280;11728;50.624;6.014;2023-02-13T10:39:43;100194.38;;;25.38;33.98
23118;BME280;11728;50.624;6.014;2023-02-13T11:01:00;100183.38;;;26.86;31.03
23118;BME280;11728;50.624;6.014;2023-02-13T11:06:05;100173.56;;;27.14;31.32
23118;BME280;11728;50.624;6.014;2023-02-13T11:16:38;100157.06;;;27.76;29.72
23118;BME280;11728;50.624;6.014;2023-02-13T11:21:40;100151.53;;;27.77;29.70
23118;BME280;11728;50.624;6.014;2023-02-13T11:26:41;100147.88;;;28.20;29.16
23118;BME280;11728;50.624;6.014;2023-02-13T11:31:42;100140.94;;;28.28;28.85
23118;BME280;11728;50.624;6.014;2023-02-13T11:36:43;100141.34;;;28.63;28.56
23118;BME280;11728;50.624;6.014;2023-02-13T11:41:44;100132.97;;;28.39;28.19
23118;BME280;11728;50.624;6.014;2023-02-13T11:46:47;100131.16;;;28.66;27.71
23118;BME280;11728;50.624;6.014;2023-02-13T11:51:52;100128.00;;;28.72;27.86
23118;BME280;11728;50.624;6.014;2023-02-13T12:07:28;100115.66;;;29.07;27.15
23118;BME280;11728;50.624;6.014;2023-02-13T12:12:37;100108.69;;;29.42;27.11
23118;BME280;11728;50.624;6.014;2023-02-13T12:17:42;100096.63;;;29.95;26.37
23118;BME280;11728;50.624;6.014;2023-02-13T12:23:25;100105.31;;;29.51;26.70
23118;BME280;11728;50.624;6.014;2023-02-13T12:50:02;100070.00;;;29.62;26.86
23118;BME280;11728;50.624;6.014;2023-02-13T13:11:37;100060.59;;;29.16;27.36
23118;BME280;11728;50.624;6.014;2023-02-13T13:27:24;100046.56;;;28.30;27.78
23118;BME280;11728;50.624;6.014;2023-02-13T13:32:27;100046.09;;;28.24;27.91
23118;BME280;11728;50.624;6.014;2023-02-13T13:37:41;100044.25;;;28.10;28.05
23118;BME280;11728;50.624;6.014;2023-02-13T13:53:18;100030.13;;;27.92;28.15
23118;BME280;11728;50.624;6.014;2023-02-13T14:03:34;100018.53;;;27.76;28.60
23118;BME280;11728;50.624;6.014;2023-02-13T14:13:39;100019.03;;;27.11;29.18
23118;BME280;11728;50.624;6.014;2023-02-13T14:18:44;100022.16;;;27.19;29.05
23118;BME280;11728;50.624;6.014;2023-02-13T14:23:47;100016.72;;;26.46;29.75
23118;BME280;11728;50.624;6.014;2023-02-13T14:44:44;100005.50;;;23.54;33.29
23118;BME280;11728;50.624;6.014;2023-02-13T14:49:46;100008.44;;;22.52;35.01
23118;BME280;11728;50.624;6.014;2023-02-13T14:54:50;100005.00;;;21.63;36.53
23118;BME280;11728;50.624;6.014;2023-02-13T15:05:12;100004.06;;;20.45;38.55
23118;BME280;11728;50.624;6.014;2023-02-13T15:10:40;99998.38;;;20.03;38.94
23118;BME280;11728;50.624;6.014;2023-02-13T15:15:41;100003.75;;;19.75;39.24
23118;BME280;11728;50.624;6.014;2023-02-13T15:20:42;100006.44;;;19.19;40.41
23118;BME280;11728;50.624;6.014;2023-02-13T15:25:43;99993.31;;;19.10;40.36
23118;BME280;11728;50.624;6.014;2023-02-13T15:30:53;100000.03;;;18.93;40.94
23118;BME280;11728;50.624;6.014;2023-02-13T15:36:02;100005.34;;;18.64;41.58
23118;BME280;11728;50.624;6.014;2023-02-13T15:41:10;100013.13;;;18.40;42.45
23118;BME280;11728;50.624;6.014;2023-02-13T15:46:19;100009.47;;;18.09;42.92
23118;BME280;11728;50.624;6.014;2023-02-13T15:51:24;100007.03;;;18.00;43.10
23118;BME280;11728;50.624;6.014;2023-02-13T15:56:26;100008.16;;;18.26;43.09
23118;BME280;11728;50.624;6.014;2023-02-13T16:01:27;100000.38;;;18.16;43.68
23118;BME280;11728;50.624;6.014;2023-02-13T16:06:29;100001.16;;;18.21;43.62
23118;BME280;11728;50.624;6.014;2023-02-13T16:16:49;100000.97;;;17.57;44.97
23118;BME280;11728;50.624;6.014;2023-02-13T16:21:52;100008.16;;;17.54;45.16
23118;BME280;11728;50.624;6.014;2023-02-13T16:26:53;100010.28;;;17.40;45.40
23118;BME280;11728;50.624;6.014;2023-02-13T16:32:03;100011.09;;;16.99;45.97
23118;BME280;11728;50.624;6.014;2023-02-13T16:37:30;100018.34;;;16.51;46.83
23118;BME280;11728;50.624;6.014;2023-02-13T16:42:31;100014.84;;;15.96;47.76
23118;BME280;11728;50.624;6.014;2023-02-13T16:47:31;100016.41;;;15.53;48.83
23118;BME280;11728;50.624;6.014;2023-02-13T16:52:36;100023.03;;;15.23;49.58
23118;BME280;11728;50.624;6.014;2023-02-13T16:57:36;100030.66;;;14.83;50.89
23118;BME280;11728;50.624;6.014;2023-02-13T17:02:38;100034.50;;;14.59;51.99
23118;BME280;11728;50.624;6.014;2023-02-13T17:07:48;100036.66;;;14.19;53.36
23118;BME280;11728;50.624;6.014;2023-02-13T17:12:50;100042.25;;;13.83;54.60
23118;BME280;11728;50.624;6.014;2023-02-13T17:17:51;100052.22;;;13.52;55.95
23118;BME280;11728;50.624;6.014;2023-02-13T17:22:54;100063.03;;;13.17;56.90
23118;BME280;11728;50.624;6.014;2023-02-13T17:27:58;100061.38;;;12.82;58.84
23118;BME280;11728;50.624;6.014;2023-02-13T17:33:06;100056.19;;;12.49;60.63
23118;BME280;11728;50.624;6.014;2023-02-13T17:38:09;100049.16;;;12.14;61.76
23118;BME280;11728;50.624;6.014;2023-02-13T17:43:17;100053.56;;;11.76;64.38
23118;BME280;11728;50.624;6.014;2023-02-13T17:48:17;100049.94;;;11.40;65.74
23118;BME280;11728;50.624;6.014;2023-02-13T17:53:26;100054.25;;;10.99;68.05
23118;BME280;11728;50.624;6.014;2023-02-13T17:58:28;100062.94;;;10.73;69.15
23118;BME280;11728;50.624;6.014;2023-02-13T18:03:29;100067.22;;;10.50;69.68
23118;BME280;11728;50.624;6.014;2023-02-13T18:08:29;100058.28;;;10.30;70.29
23118;BME280;11728;50.624;6.014;2023-02-13T18:13:29;100067.84;;;10.15;70.47
23118;BME280;11728;50.624;6.014;2023-02-13T18:18:30;100080.03;;;9.98;71.39
23118;BME280;11728;50.624;6.014;2023-02-13T18:23:30;100076.38;;;9.84;72.23
23118;BME280;11728;50.624;6.014;2023-02-13T18:28:31;100080.66;;;9.73;72.08
23118;BME280;11728;50.624;6.014;2023-02-13T18:33:31;100077.06;;;9.67;71.77
23118;BME280;11728;50.624;6.014;2023-02-13T18:38:32;100098.00;;;9.50;72.59
23118;BME280;11728;50.624;6.014;2023-02-13T18:43:32;100097.09;;;9.48;71.65
23118;BME280;11728;50.624;6.014;2023-02-13T18:48:33;100090.84;;;9.36;71.41
23118;BME280;11728;50.624;6.014;2023-02-13T18:53:33;100089.66;;;9.12;71.73
23118;BME280;11728;50.624;6.014;2023-02-13T18:58:33;100093.81;;;8.93;71.96
23118;BME280;11728;50.624;6.014;2023-02-13T19:03:37;100094.41;;;8.71;71.74
23118;BME280;11728;50.624;6.014;2023-02-13T19:08:38;100089.53;;;8.36;73.72
23118;BME280;11728;50.624;6.014;2023-02-13T19:13:39;100080.50;;;8.19;74.42
23118;BME280;11728;50.624;6.014;2023-02-13T19:18:41;100071.81;;;8.25;74.54
23118;BME280;11728;50.624;6.014;2023-02-13T19:23:42;100069.91;;;8.16;74.26
23118;BME280;11728;50.624;6.014;2023-02-13T19:28:43;100065.38;;;8.09;74.78
23118;BME280;11728;50.624;6.014;2023-02-13T19:33:44;100053.19;;;8.14;74.32
23118;BME280;11728;50.624;6.014;2023-02-13T19:38:44;100059.19;;;8.04;74.70
23118;BME280;11728;50.624;6.014;2023-02-13T19:43:45;100061.72;;;7.98;74.42
23118;BME280;11728;50.624;6.014;2023-02-13T19:48:52;100071.25;;;7.92;74.11
23118;BME280;11728;50.624;6.014;2023-02-13T19:53:54;100055.34;;;7.84;73.87
23118;BME280;11728;50.624;6.014;2023-02-13T19:58:56;100063.00;;;7.71;74.37
23118;BME280;11728;50.624;6.014;2023-02-13T20:03:57;100066.41;;;7.65;74.17
23118;BME280;11728;50.624;6.014;2023-02-13T20:08:58;100061.13;;;7.63;74.31
23118;BME280;11728;50.624;6.014;2023-02-13T20:13:59;100071.50;;;7.57;74.34
23118;BME280;11728;50.624;6.014;2023-02-13T20:19:01;100074.00;;;7.49;74.71
23118;BME280;11728;50.624;6.014;2023-02-13T20:24:04;100079.34;;;7.54;74.38
23118;BME280;11728;50.624;6.014;2023-02-13T20:29:05;100077.84;;;7.66;74.05
23118;BME280;11728;50.624;6.014;2023-02-13T20:34:06;100079.34;;;7.54;74.13
23118;BME280;11728;50.624;6.014;2023-02-13T20:39:07;100076.19;;;7.27;75.63
23118;BME280;11728;50.624;6.014;2023-02-13T20:44:10;100085.56;;;7.13;76.15
23118;BME280;11728;50.624;6.014;2023-02-13T20:49:11;100073.91;;;6.99;76.60
23118;BME280;11728;50.624;6.014;2023-02-13T20:54:18;100072.00;;;6.90;76.96
23118;BME280;11728;50.624;6.014;2023-02-13T20:59:18;100077.13;;;6.85;76.57
23118;BME280;11728;50.624;6.014;2023-02-13T21:04:18;100069.94;;;6.76;77.07
23118;BME280;11728;50.624;6.014;2023-02-13T21:09:20;100069.03;;;6.74;77.63
23118;BME280;11728;50.624;6.014;2023-02-13T21:14:20;100067.91;;;6.63;77.93
23118;BME280;11728;50.624;6.014;2023-02-13T21:19:20;100064.22;;;6.54;78.27
23118;BME280;11728;50.624;6.014;2023-02-13T21:24:21;100066.66;;;6.46;78.60
23118;BME280;11728;50.624;6.014;2023-02-13T21:29:22;100066.44;;;6.36;79.24
23118;BME280;11728;50.624;6.014;2023-02-13T21:34:22;100069.78;;;6.30;79.31
23118;BME280;11728;50.624;6.014;2023-02-13T21:39:23;100067.88;;;6.23;79.56
23118;BME280;11728;50.624;6.014;2023-02-13T21:44:23;100070.34;;;6.14;79.38
23118;BME280;11728;50.624;6.014;2023-02-13T21:49:24;100069.28;;;6.08;79.50
23118;BME280;11728;50.624;6.014;2023-02-13T21:54:24;100078.47;;;5.90;80.42
23118;BME280;11728;50.624;6.014;2023-02-13T21:59:25;100069.44;;;5.79;81.33
23118;BME280;11728;50.624;6.014;2023-02-13T22:04:25;100072.44;;;5.61;82.71
23118;BME280;11728;50.624;6.014;2023-02-13T22:09:26;100060.25;;;5.62;82.77
23118;BME280;11728;50.624;6.014;2023-02-13T22:14:26;100062.03;;;5.63;82.72
23118;BME280;11728;50.624;6.014;2023-02-13T22:19:27;100067.09;;;5.57;82.71
23118;BME280;11728;50.624;6.014;2023-02-13T22:24:27;100060.13;;;5.56;82.83
23118;BME280;11728;50.624;6.014;2023-02-13T22:29:28;100064.41;;;5.54;82.54
23118;BME280;11728;50.624;6.014;2023-02-13T22:34:28;100051.13;;;5.46;83.21
23118;BME280;11728;50.624;6.014;2023-02-13T22:39:28;100054.41;;;5.38;83.90
23118;BME280;11728;50.624;6.014;2023-02-13T22:44:29;100050.09;;;5.40;83.79
23118;BME280;11728;50.624;6.014;2023-02-13T22:49:29;100060.50;;;5.38;84.01
23118;BME280;11728;50.624;6.014;2023-02-13T22:54:29;100061.09;;;5.27;84.21
23118;BME280;11728;50.624;6.014;2023-02-13T22:59:30;100059.31;;;5.26;84.53
23118;BME280;11728;50.624;6.014;2023-02-13T23:04:35;100056.75;;;5.28;84.62
23118;BME280;11728;50.624;6.014;2023-02-13T23:09:36;100058.28;;;5.20;85.31
23118;BME280;11728;50.624;6.014;2023-02-13T23:14:36;100062.44;;;5.13;85.27
23118;BME280;11728;50.624;6.014;2023-02-13T23:19:36;100064.44;;;4.91;85.45
23118;BME280;11728;50.624;6.014;2023-02-13T23:24:37;100061.03;;;4.93;85.73
23118;BME280;11728;50.624;6.014;2023-02-13T23:29:37;100058.16;;;4.84;85.98
23118;BME280;11728;50.624;6.014;2023-02-13T23:34:38;100064.88;;;4.75;85.90
23118;BME280;11728;50.624;6.014;2023-02-13T23:39:38;100065.09;;;4.53;86.72
23118;BME280;11728;50.624;6.014;2023-02-13T23:44:39;100066.38;;;4.38;86.99
23118;BME280;11728;50.624;6.014;2023-02-13T23:49:39;100074.13;;;4.35;86.78
23118;BME280;11728;50.624;6.014;2023-02-13T23:54:40;100066.94;;;4.28;87.77
23118;BME280;11728;50.624;6.014;2023-02-13T23:59:40;100065.97;;;4.24;88.45
